sensor_id;sensor_type;location;lat;lon;timestamp;P1;durP1;ratioP1;P2;durP2;ratioP2
8413;SDS011;4244;48.684;9.028;2024-03-23T00:55:39;4.77;;;4.27;;
8413;SDS011;4244;48.684;9.028;2024-03-23T00:58:05;4.37;;;3.97;;
8413;SDS011;4244;48.684;9.028;2024-03-23T01:00:31;5.33;;;4.83;;
8413;SDS011;4244;48.684;9.028;2024-03-23T01:02:57;4.00;;;3.60;;
8413;SDS011;4244;48.684;9.028;2024-03-23T01:05:22;5.00;;;4.50;;
8413;SDS011;4244;48.684;9.028;2024-03-23T01:07:48;4.57;;;4.10;;
8413;SDS011;4244;48.684;9.028;2024-03-23T01:10:13;3.97;;;3.50;;
8413;SDS011;4244;48.684;9.028;2024-03-23T01:12:39;4.20;;;3.73;;
8413;SDS011;4244;48.684;9.028;2024-03-23T01:15:05;4.40;;;4.00;;
8413;SDS011;4244;48.684;9.028;2024-03-23T01:17:31;4.93;;;3.80;;
8413;SDS011;4244;48.684;9.028;2024-03-23T01:19:57;4.13;;;3.73;;
8413;SDS011;4244;48.684;9.028;2024-03-23T01:22:22;4.07;;;3.50;;
8413;SDS011;4244;48.684;9.028;2024-03-23T01:24:48;3.57;;;3.27;;
8413;SDS011;4244;48.684;9.028;2024-03-23T01:27:14;3.73;;;3.33;;
8413;SDS011;4244;48.684;9.028;2024-03-23T01:29:39;3.53;;;3.23;;
8413;SDS011;4244;48.684;9.028;2024-03-23T01:32:05;3.50;;;3.20;;
8413;SDS011;4244;48.684;9.028;2024-03-23T01:34:32;3.73;;;3.30;;
8413;SDS011;4244;48.684;9.028;2024-03-23T01:36:57;3.20;;;2.90;;
8413;SDS011;4244;48.684;9.028;2024-03-23T01:39:23;3.80;;;3.50;;
8413;SDS011;4244;48.684;9.028;2024-03-23T01:41:49;3.83;;;3.53;;
8413;SDS011;4244;48.684;9.028;2024-03-23T01:44:15;4.70;;;4.27;;
8413;SDS011;4244;48.684;9.028;2024-03-23T01:46:41;3.97;;;3.57;;
8413;SDS011;4244;48.684;9.028;2024-03-23T01:49:07;4.97;;;4.47;;
8413;SDS011;4244;48.684;9.028;2024-03-23T01:51:33;5.13;;;4.63;;
8413;SDS011;4244;48.684;9.028;2024-03-23T01:54:00;4.60;;;4.00;;
8413;SDS011;4244;48.684;9.028;2024-03-23T01:56:28;5.00;;;4.50;;
8413;SDS011;4244;48.684;9.028;2024-03-23T01:59:01;4.80;;;4.20;;
8413;SDS011;4244;48.684;9.028;2024-03-23T02:01:27;5.20;;;4.70;;
8413;SDS011;4244;48.684;9.028;2024-03-23T02:03:53;5.20;;;4.70;;
8413;SDS011;4244;48.684;9.028;2024-03-23T02:06:18;6.80;;;4.40;;
8413;SDS011;4244;48.684;9.028;2024-03-23T02:08:44;5.50;;;4.30;;
8413;SDS011;4244;48.684;9.028;2024-03-23T02:11:10;3.77;;;3.47;;
8413;SDS011;4244;48.684;9.028;2024-03-23T02:13:35;4.20;;;3.67;;
8413;SDS011;4244;48.684;9.028;2024-03-23T02:16:01;4.10;;;3.60;;
8413;SDS011;4244;48.684;9.028;2024-03-23T02:18:27;4.20;;;3.43;;
8413;SDS011;4244;48.684;9.028;2024-03-23T02:20:52;4.00;;;3.60;;
8413;SDS011;4244;48.684;9.028;2024-03-23T02:23:18;4.10;;;3.70;;
8413;SDS011;4244;48.684;9.028;2024-03-23T02:25:44;4.80;;;3.80;;
8413;SDS011;4244;48.684;9.028;2024-03-23T02:28:10;4.27;;;3.87;;
8413;SDS011;4244;48.684;9.028;2024-03-23T02:30:36;3.90;;;3.50;;
8413;SDS011;4244;48.684;9.028;2024-03-23T02:33:02;4.10;;;3.20;;
8413;SDS011;4244;48.684;9.028;2024-03-23T02:35:28;3.70;;;3.40;;
8413;SDS011;4244;48.684;9.028;2024-03-23T02:37:55;5.83;;;3.90;;
8413;SDS011;4244;48.684;9.028;2024-03-23T02:40:22;4.23;;;3.77;;
8413;SDS011;4244;48.684;9.028;2024-03-23T02:42:48;6.00;;;4.00;;
8413;SDS011;4244;48.684;9.028;2024-03-23T02:45:14;3.93;;;3.63;;
8413;SDS011;4244;48.684;9.028;2024-03-23T02:47:40;4.53;;;3.60;;
8413;SDS011;4244;48.684;9.028;2024-03-23T02:50:05;4.53;;;3.23;;
8413;SDS011;4244;48.684;9.028;2024-03-23T02:52:32;4.60;;;3.50;;
8413;SDS011;4244;48.684;9.028;2024-03-23T02:54:57;4.00;;;3.60;;
8413;SDS011;4244;48.684;9.028;2024-03-23T02:57:23;6.90;;;4.07;;
8413;SDS011;4244;48.684;9.028;2024-03-23T02:59:49;4.30;;;3.97;;
8413;SDS011;4244;48.684;9.028;2024-03-23T03:02:15;4.87;;;3.40;;
8413;SDS011;4244;48.684;9.028;2024-03-23T03:04:41;3.53;;;3.20;;
8413;SDS011;4244;48.684;9.028;2024-03-23T03:07:07;4.23;;;3.83;;
8413;SDS011;4244;48.684;9.028;2024-03-23T03:09:33;5.20;;;3.90;;
8413;SDS011;4244;48.684;9.028;2024-03-23T03:12:00;4.53;;;3.40;;
8413;SDS011;4244;48.684;9.028;2024-03-23T03:14:28;4.47;;;3.40;;
8413;SDS011;4244;48.684;9.028;2024-03-23T03:16:54;7.87;;;3.73;;
8413;SDS011;4244;48.684;9.028;2024-03-23T03:19:20;5.27;;;3.37;;
8413;SDS011;4244;48.684;9.028;2024-03-23T03:21:46;4.27;;;3.60;;
8413;SDS011;4244;48.684;9.028;2024-03-23T03:24:12;3.90;;;3.50;;
8413;SDS011;4244;48.684;9.028;2024-03-23T03:26:38;7.90;;;3.67;;
8413;SDS011;4244;48.684;9.028;2024-03-23T03:29:04;3.37;;;3.07;;
8413;SDS011;4244;48.684;9.028;2024-03-23T03:31:29;4.00;;;3.30;;
8413;SDS011;4244;48.684;9.028;2024-03-23T03:33:55;4.30;;;3.90;;
8413;SDS011;4244;48.684;9.028;2024-03-23T03:36:21;6.07;;;3.70;;
8413;SDS011;4244;48.684;9.028;2024-03-23T03:38:46;4.17;;;3.30;;
8413;SDS011;4244;48.684;9.028;2024-03-23T03:41:12;6.03;;;3.23;;
8413;SDS011;4244;48.684;9.028;2024-03-23T03:46:59;5.90;;;3.83;;
8413;SDS011;4244;48.684;9.028;2024-03-23T03:49:25;3.60;;;3.00;;
8413;SDS011;4244;48.684;9.028;2024-03-23T03:51:51;3.83;;;3.53;;
8413;SDS011;4244;48.684;9.028;2024-03-23T03:54:16;5.07;;;3.70;;
8413;SDS011;4244;48.684;9.028;2024-03-23T03:56:42;4.27;;;3.37;;
8413;SDS011;4244;48.684;9.028;2024-03-23T03:59:07;5.63;;;3.40;;
8413;SDS011;4244;48.684;9.028;2024-03-23T04:01:33;4.20;;;3.43;;
8413;SDS011;4244;48.684;9.028;2024-03-23T04:03:59;5.30;;;3.97;;
8413;SDS011;4244;48.684;9.028;2024-03-23T04:06:24;3.77;;;3.47;;
8413;SDS011;4244;48.684;9.028;2024-03-23T04:08:50;4.30;;;3.90;;
8413;SDS011;4244;48.684;9.028;2024-03-23T04:11:16;3.73;;;3.30;;
8413;SDS011;4244;48.684;9.028;2024-03-23T04:13:41;4.93;;;3.50;;
8413;SDS011;4244;48.684;9.028;2024-03-23T04:16:07;4.10;;;3.70;;
8413;SDS011;4244;48.684;9.028;2024-03-23T04:18:34;5.37;;;3.27;;
8413;SDS011;4244;48.684;9.028;2024-03-23T04:21:00;3.60;;;3.30;;
8413;SDS011;4244;48.684;9.028;2024-03-23T04:23:25;4.60;;;3.83;;
8413;SDS011;4244;48.684;9.028;2024-03-23T04:25:51;5.30;;;3.80;;
8413;SDS011;4244;48.684;9.028;2024-03-23T04:28:18;4.03;;;3.63;;
8413;SDS011;4244;48.684;9.028;2024-03-23T04:30:44;4.13;;;3.40;;
8413;SDS011;4244;48.684;9.028;2024-03-23T04:33:09;4.10;;;3.70;;
8413;SDS011;4244;48.684;9.028;2024-03-23T04:35:35;4.83;;;3.50;;
8413;SDS011;4244;48.684;9.028;2024-03-23T04:38:01;4.40;;;3.97;;
8413;SDS011;4244;48.684;9.028;2024-03-23T04:40:27;4.20;;;3.77;;
8413;SDS011;4244;48.684;9.028;2024-03-23T04:42:52;3.57;;;3.03;;
8413;SDS011;4244;48.684;9.028;2024-03-23T04:45:18;4.00;;;3.60;;
8413;SDS011;4244;48.684;9.028;2024-03-23T04:47:44;3.80;;;3.47;;
8413;SDS011;4244;48.684;9.028;2024-03-23T04:50:09;4.10;;;3.37;;
8413;SDS011;4244;48.684;9.028;2024-03-23T04:52:38;3.87;;;3.57;;
8413;SDS011;4244;48.684;9.028;2024-03-23T04:55:03;3.47;;;3.17;;
8413;SDS011;4244;48.684;9.028;2024-03-23T04:57:29;4.00;;;3.67;;
8413;SDS011;4244;48.684;9.028;2024-03-23T04:59:55;4.87;;;4.17;;
8413;SDS011;4244;48.684;9.028;2024-03-23T05:02:21;5.63;;;4.10;;
8413;SDS011;4244;48.684;9.028;2024-03-23T05:04:47;4.10;;;3.43;;
8413;SDS011;4244;48.684;9.028;2024-03-23T05:07:12;4.83;;;4.43;;
8413;SDS011;4244;48.684;9.028;2024-03-23T05:09:38;4.10;;;3.70;;
8413;SDS011;4244;48.684;9.028;2024-03-23T05:12:04;3.80;;;3.50;;
8413;SDS011;4244;48.684;9.028;2024-03-23T05:14:30;4.27;;;3.87;;
8413;SDS011;4244;48.684;9.028;2024-03-23T05:16:55;4.27;;;3.97;;
8413;SDS011;4244;48.684;9.028;2024-03-23T05:19:21;4.63;;;4.20;;
8413;SDS011;4244;48.684;9.028;2024-03-23T05:21:47;5.00;;;4.60;;
8413;SDS011;4244;48.684;9.028;2024-03-23T05:24:13;6.20;;;5.60;;
8413;SDS011;4244;48.684;9.028;2024-03-23T05:26:38;7.53;;;4.97;;
8413;SDS011;4244;48.684;9.028;2024-03-23T05:29:04;7.50;;;6.80;;
8413;SDS011;4244;48.684;9.028;2024-03-23T05:31:31;7.30;;;6.60;;
8413;SDS011;4244;48.684;9.028;2024-03-23T05:33:57;8.80;;;8.00;;
8413;SDS011;4244;48.684;9.028;2024-03-23T05:36:23;8.70;;;7.90;;
8413;SDS011;4244;48.684;9.028;2024-03-23T05:38:51;9.10;;;8.30;;
8413;SDS011;4244;48.684;9.028;2024-03-23T05:41:17;9.17;;;8.27;;
8413;SDS011;4244;48.684;9.028;2024-03-23T05:43:42;9.27;;;8.37;;
8413;SDS011;4244;48.684;9.028;2024-03-23T05:46:08;9.50;;;8.60;;
8413;SDS011;4244;48.684;9.028;2024-03-23T05:48:34;10.90;;;9.77;;
8413;SDS011;4244;48.684;9.028;2024-03-23T05:51:00;9.07;;;8.27;;
8413;SDS011;4244;48.684;9.028;2024-03-23T05:53:26;8.90;;;8.07;;
8413;SDS011;4244;48.684;9.028;2024-03-23T05:55:59;9.50;;;7.20;;
8413;SDS011;4244;48.684;9.028;2024-03-23T05:58:26;8.57;;;7.77;;
8413;SDS011;4244;48.684;9.028;2024-03-23T06:00:56;8.33;;;7.10;;
8413;SDS011;4244;48.684;9.028;2024-03-23T06:03:23;9.73;;;7.57;;
8413;SDS011;4244;48.684;9.028;2024-03-23T06:05:50;9.40;;;7.53;;
8413;SDS011;4244;48.684;9.028;2024-03-23T06:08:16;7.47;;;6.67;;
8413;SDS011;4244;48.684;9.028;2024-03-23T06:10:42;6.50;;;5.90;;
8413;SDS011;4244;48.684;9.028;2024-03-23T06:13:07;7.23;;;5.87;;
8413;SDS011;4244;48.684;9.028;2024-03-23T06:15:33;6.00;;;5.20;;
8413;SDS011;4244;48.684;9.028;2024-03-23T06:18:02;5.10;;;4.07;;
8413;SDS011;4244;48.684;9.028;2024-03-23T06:20:29;4.27;;;3.87;;
8413;SDS011;4244;48.684;9.028;2024-03-23T06:22:54;3.80;;;3.40;;
8413;SDS011;4244;48.684;9.028;2024-03-23T06:25:20;3.23;;;2.90;;
8413;SDS011;4244;48.684;9.028;2024-03-23T06:27:45;35.20;;;11.10;;
8413;SDS011;4244;48.684;9.028;2024-03-23T06:30:11;45.97;;;14.03;;
8413;SDS011;4244;48.684;9.028;2024-03-23T06:32:37;38.77;;;13.50;;
8413;SDS011;4244;48.684;9.028;2024-03-23T06:35:03;9.43;;;4.63;;
8413;SDS011;4244;48.684;9.028;2024-03-23T06:37:33;3.00;;;1.80;;
8413;SDS011;4244;48.684;9.028;2024-03-23T06:39:59;2.27;;;1.70;;
8413;SDS011;4244;48.684;9.028;2024-03-23T06:42:25;2.03;;;1.50;;
8413;SDS011;4244;48.684;9.028;2024-03-23T06:44:50;2.13;;;1.40;;
8413;SDS011;4244;48.684;9.028;2024-03-23T06:47:16;1.40;;;1.13;;
8413;SDS011;4244;48.684;9.028;2024-03-23T06:49:42;1.63;;;1.23;;
8413;SDS011;4244;48.684;9.028;2024-03-23T06:52:07;1.70;;;1.60;;
8413;SDS011;4244;48.684;9.028;2024-03-23T06:54:33;2.03;;;1.70;;
8413;SDS011;4244;48.684;9.028;2024-03-23T06:56:58;1.63;;;1.40;;
8413;SDS011;4244;48.684;9.028;2024-03-23T06:59:24;3.30;;;3.00;;
8413;SDS011;4244;48.684;9.028;2024-03-23T07:01:50;2.67;;;2.30;;
8413;SDS011;4244;48.684;9.028;2024-03-23T07:04:15;2.20;;;1.50;;
8413;SDS011;4244;48.684;9.028;2024-03-23T07:06:44;1.30;;;0.80;;
8413;SDS011;4244;48.684;9.028;2024-03-23T07:09:10;1.60;;;0.90;;
8413;SDS011;4244;48.684;9.028;2024-03-23T07:11:36;1.00;;;0.80;;
8413;SDS011;4244;48.684;9.028;2024-03-23T07:14:02;2.90;;;0.73;;
8413;SDS011;4244;48.684;9.028;2024-03-23T07:16:28;1.40;;;0.63;;
8413;SDS011;4244;48.684;9.028;2024-03-23T07:18:54;0.97;;;0.60;;
8413;SDS011;4244;48.684;9.028;2024-03-23T07:21:20;1.10;;;0.60;;
8413;SDS011;4244;48.684;9.028;2024-03-23T07:23:47;1.00;;;0.70;;
8413;SDS011;4244;48.684;9.028;2024-03-23T07:26:12;1.50;;;0.70;;
8413;SDS011;4244;48.684;9.028;2024-03-23T07:28:38;0.87;;;0.47;;
8413;SDS011;4244;48.684;9.028;2024-03-23T07:31:09;1.20;;;0.67;;
8413;SDS011;4244;48.684;9.028;2024-03-23T07:33:36;0.80;;;0.50;;
8413;SDS011;4244;48.684;9.028;2024-03-23T07:36:03;1.27;;;0.80;;
8413;SDS011;4244;48.684;9.028;2024-03-23T07:38:29;1.30;;;0.50;;
8413;SDS011;4244;48.684;9.028;2024-03-23T07:41:11;0.70;;;0.40;;
8413;SDS011;4244;48.684;9.028;2024-03-23T07:43:40;1.00;;;0.40;;
8413;SDS011;4244;48.684;9.028;2024-03-23T07:46:06;0.80;;;0.40;;
8413;SDS011;4244;48.684;9.028;2024-03-23T07:48:31;0.83;;;0.40;;
8413;SDS011;4244;48.684;9.028;2024-03-23T07:51:00;0.70;;;0.40;;
8413;SDS011;4244;48.684;9.028;2024-03-23T07:53:30;1.00;;;0.50;;
8413;SDS011;4244;48.684;9.028;2024-03-23T07:58:23;1.20;;;0.70;;
8413;SDS011;4244;48.684;9.028;2024-03-23T08:00:49;0.80;;;0.50;;
8413;SDS011;4244;48.684;9.028;2024-03-23T08:03:15;1.23;;;0.50;;
8413;SDS011;4244;48.684;9.028;2024-03-23T08:05:41;0.90;;;0.50;;
8413;SDS011;4244;48.684;9.028;2024-03-23T08:08:07;1.30;;;0.70;;
8413;SDS011;4244;48.684;9.028;2024-03-23T08:10:32;1.00;;;0.60;;
8413;SDS011;4244;48.684;9.028;2024-03-23T08:12:58;1.07;;;0.83;;
8413;SDS011;4244;48.684;9.028;2024-03-23T08:15:23;1.00;;;0.70;;
8413;SDS011;4244;48.684;9.028;2024-03-23T08:17:49;1.90;;;0.73;;
8413;SDS011;4244;48.684;9.028;2024-03-23T08:20:15;1.23;;;0.80;;
8413;SDS011;4244;48.684;9.028;2024-03-23T08:22:41;1.77;;;1.17;;
8413;SDS011;4244;48.684;9.028;2024-03-23T08:25:07;1.43;;;0.90;;
8413;SDS011;4244;48.684;9.028;2024-03-23T08:27:32;2.50;;;1.40;;
8413;SDS011;4244;48.684;9.028;2024-03-23T08:29:58;1.37;;;1.07;;
8413;SDS011;4244;48.684;9.028;2024-03-23T08:32:24;1.17;;;1.00;;
8413;SDS011;4244;48.684;9.028;2024-03-23T08:34:49;1.83;;;1.30;;
8413;SDS011;4244;48.684;9.028;2024-03-23T08:37:15;1.80;;;0.93;;
8413;SDS011;4244;48.684;9.028;2024-03-23T08:39:42;1.67;;;1.20;;
8413;SDS011;4244;48.684;9.028;2024-03-23T08:42:08;1.90;;;1.43;;
8413;SDS011;4244;48.684;9.028;2024-03-23T08:44:34;1.70;;;1.17;;
8413;SDS011;4244;48.684;9.028;2024-03-23T08:47:00;2.30;;;1.10;;
8413;SDS011;4244;48.684;9.028;2024-03-23T08:49:28;1.37;;;1.00;;
8413;SDS011;4244;48.684;9.028;2024-03-23T08:51:54;1.70;;;0.80;;
8413;SDS011;4244;48.684;9.028;2024-03-23T08:54:19;2.23;;;1.20;;
8413;SDS011;4244;48.684;9.028;2024-03-23T08:56:47;3.43;;;1.40;;
8413;SDS011;4244;48.684;9.028;2024-03-23T08:59:12;1.33;;;0.97;;
8413;SDS011;4244;48.684;9.028;2024-03-23T09:01:40;6.83;;;1.77;;
8413;SDS011;4244;48.684;9.028;2024-03-23T09:04:05;1.97;;;1.53;;
8413;SDS011;4244;48.684;9.028;2024-03-23T09:06:31;3.03;;;1.87;;
8413;SDS011;4244;48.684;9.028;2024-03-23T09:08:56;3.37;;;2.33;;
8413;SDS011;4244;48.684;9.028;2024-03-23T09:11:22;2.97;;;2.63;;
8413;SDS011;4244;48.684;9.028;2024-03-23T09:13:48;4.00;;;3.57;;
8413;SDS011;4244;48.684;9.028;2024-03-23T09:16:29;5.00;;;3.83;;
8413;SDS011;4244;48.684;9.028;2024-03-23T09:18:55;7.07;;;6.10;;
8413;SDS011;4244;48.684;9.028;2024-03-23T09:21:20;5.87;;;4.60;;
8413;SDS011;4244;48.684;9.028;2024-03-23T09:23:46;5.10;;;3.87;;
8413;SDS011;4244;48.684;9.028;2024-03-23T09:26:12;6.00;;;3.80;;
8413;SDS011;4244;48.684;9.028;2024-03-23T09:28:38;4.53;;;2.90;;
8413;SDS011;4244;48.684;9.028;2024-03-23T09:31:04;6.10;;;3.10;;
8413;SDS011;4244;48.684;9.028;2024-03-23T09:33:30;6.33;;;3.60;;
8413;SDS011;4244;48.684;9.028;2024-03-23T09:35:56;6.80;;;4.67;;
8413;SDS011;4244;48.684;9.028;2024-03-23T09:38:24;3.30;;;2.37;;
8413;SDS011;4244;48.684;9.028;2024-03-23T09:40:52;5.97;;;3.40;;
8413;SDS011;4244;48.684;9.028;2024-03-23T09:43:18;4.47;;;3.10;;
8413;SDS011;4244;48.684;9.028;2024-03-23T09:45:44;5.53;;;3.50;;
8413;SDS011;4244;48.684;9.028;2024-03-23T09:48:11;4.13;;;3.07;;
8413;SDS011;4244;48.684;9.028;2024-03-23T09:50:40;5.40;;;3.00;;
8413;SDS011;4244;48.684;9.028;2024-03-23T09:53:06;5.50;;;3.50;;
8413;SDS011;4244;48.684;9.028;2024-03-23T09:55:32;4.93;;;3.07;;
8413;SDS011;4244;48.684;9.028;2024-03-23T09:57:59;5.70;;;3.23;;
8413;SDS011;4244;48.684;9.028;2024-03-23T10:00:25;4.43;;;3.33;;
8413;SDS011;4244;48.684;9.028;2024-03-23T10:02:51;4.80;;;3.37;;
8413;SDS011;4244;48.684;9.028;2024-03-23T10:05:23;9.63;;;2.73;;
8413;SDS011;4244;48.684;9.028;2024-03-23T10:07:49;4.83;;;3.67;;
8413;SDS011;4244;48.684;9.028;2024-03-23T10:10:15;6.27;;;3.43;;
8413;SDS011;4244;48.684;9.028;2024-03-23T10:12:48;3.83;;;2.80;;
8413;SDS011;4244;48.684;9.028;2024-03-23T10:15:19;8.47;;;3.67;;
8413;SDS011;4244;48.684;9.028;2024-03-23T10:17:45;6.37;;;3.43;;
8413;SDS011;4244;48.684;9.028;2024-03-23T10:20:12;4.13;;;2.97;;
8413;SDS011;4244;48.684;9.028;2024-03-23T10:22:38;5.03;;;3.00;;
8413;SDS011;4244;48.684;9.028;2024-03-23T10:25:07;6.80;;;3.30;;
8413;SDS011;4244;48.684;9.028;2024-03-23T10:27:34;7.90;;;4.00;;
8413;SDS011;4244;48.684;9.028;2024-03-23T10:30:07;6.80;;;3.00;;
8413;SDS011;4244;48.684;9.028;2024-03-23T10:32:34;9.67;;;4.50;;
8413;SDS011;4244;48.684;9.028;2024-03-23T10:37:46;6.93;;;3.77;;
8413;SDS011;4244;48.684;9.028;2024-03-23T10:40:14;4.47;;;3.47;;
8413;SDS011;4244;48.684;9.028;2024-03-23T10:42:40;5.80;;;3.10;;
8413;SDS011;4244;48.684;9.028;2024-03-23T10:45:06;4.73;;;3.20;;
8413;SDS011;4244;48.684;9.028;2024-03-23T10:47:34;5.70;;;3.60;;
8413;SDS011;4244;48.684;9.028;2024-03-23T10:50:00;4.00;;;3.17;;
8413;SDS011;4244;48.684;9.028;2024-03-23T10:52:26;4.67;;;2.20;;
8413;SDS011;4244;48.684;9.028;2024-03-23T10:54:52;3.80;;;1.70;;
8413;SDS011;4244;48.684;9.028;2024-03-23T10:57:20;2.03;;;1.40;;
8413;SDS011;4244;48.684;9.028;2024-03-23T10:59:48;4.00;;;1.90;;
8413;SDS011;4244;48.684;9.028;2024-03-23T11:02:20;3.00;;;1.97;;
8413;SDS011;4244;48.684;9.028;2024-03-23T11:04:46;2.07;;;1.30;;
8413;SDS011;4244;48.684;9.028;2024-03-23T11:07:32;3.20;;;1.50;;
8413;SDS011;4244;48.684;9.028;2024-03-23T11:09:58;4.13;;;1.80;;
8413;SDS011;4244;48.684;9.028;2024-03-23T11:12:25;2.40;;;1.80;;
8413;SDS011;4244;48.684;9.028;2024-03-23T11:15:14;5.03;;;2.10;;
8413;SDS011;4244;48.684;9.028;2024-03-23T11:17:40;5.33;;;2.57;;
8413;SDS011;4244;48.684;9.028;2024-03-23T11:20:06;3.40;;;1.83;;
8413;SDS011;4244;48.684;9.028;2024-03-23T11:27:40;4.50;;;2.00;;
8413;SDS011;4244;48.684;9.028;2024-03-23T11:30:18;4.07;;;1.97;;
8413;SDS011;4244;48.684;9.028;2024-03-23T11:32:46;3.77;;;2.00;;
8413;SDS011;4244;48.684;9.028;2024-03-23T11:35:27;3.40;;;1.80;;
8413;SDS011;4244;48.684;9.028;2024-03-23T11:40:42;2.60;;;1.30;;
8413;SDS011;4244;48.684;9.028;2024-03-23T11:43:09;3.73;;;1.67;;
8413;SDS011;4244;48.684;9.028;2024-03-23T11:45:39;4.07;;;1.70;;
8413;SDS011;4244;48.684;9.028;2024-03-23T11:48:16;3.30;;;1.67;;
8413;SDS011;4244;48.684;9.028;2024-03-23T11:50:44;2.27;;;1.27;;
8413;SDS011;4244;48.684;9.028;2024-03-23T11:55:43;3.07;;;1.70;;
8413;SDS011;4244;48.684;9.028;2024-03-23T11:58:10;3.10;;;1.20;;
8413;SDS011;4244;48.684;9.028;2024-03-23T12:00:36;6.50;;;1.80;;
8413;SDS011;4244;48.684;9.028;2024-03-23T12:03:02;4.00;;;1.53;;
8413;SDS011;4244;48.684;9.028;2024-03-23T12:05:28;4.30;;;1.53;;
8413;SDS011;4244;48.684;9.028;2024-03-23T12:07:55;3.80;;;1.97;;
8413;SDS011;4244;48.684;9.028;2024-03-23T12:10:21;3.83;;;1.70;;
8413;SDS011;4244;48.684;9.028;2024-03-23T12:12:57;5.37;;;1.47;;
8413;SDS011;4244;48.684;9.028;2024-03-23T12:15:24;2.50;;;1.63;;
8413;SDS011;4244;48.684;9.028;2024-03-23T12:17:50;5.07;;;2.00;;
8413;SDS011;4244;48.684;9.028;2024-03-23T12:20:15;4.87;;;2.20;;
8413;SDS011;4244;48.684;9.028;2024-03-23T12:22:41;4.23;;;2.23;;
8413;SDS011;4244;48.684;9.028;2024-03-23T12:25:07;3.90;;;2.10;;
8413;SDS011;4244;48.684;9.028;2024-03-23T12:27:32;6.40;;;2.50;;
8413;SDS011;4244;48.684;9.028;2024-03-23T12:29:59;5.93;;;2.33;;
8413;SDS011;4244;48.684;9.028;2024-03-23T12:32:27;6.63;;;2.53;;
8413;SDS011;4244;48.684;9.028;2024-03-23T12:34:52;5.03;;;2.30;;
8413;SDS011;4244;48.684;9.028;2024-03-23T12:37:18;5.33;;;2.70;;
8413;SDS011;4244;48.684;9.028;2024-03-23T12:39:44;4.33;;;2.33;;
8413;SDS011;4244;48.684;9.028;2024-03-23T12:42:10;4.50;;;2.80;;
8413;SDS011;4244;48.684;9.028;2024-03-23T12:44:36;5.40;;;2.67;;
8413;SDS011;4244;48.684;9.028;2024-03-23T12:47:01;4.17;;;2.47;;
8413;SDS011;4244;48.684;9.028;2024-03-23T12:49:27;4.47;;;2.67;;
8413;SDS011;4244;48.684;9.028;2024-03-23T12:51:54;5.63;;;2.90;;
8413;SDS011;4244;48.684;9.028;2024-03-23T12:54:20;5.30;;;2.80;;
8413;SDS011;4244;48.684;9.028;2024-03-23T12:56:46;4.90;;;2.90;;
8413;SDS011;4244;48.684;9.028;2024-03-23T12:59:12;5.63;;;2.90;;
8413;SDS011;4244;48.684;9.028;2024-03-23T13:01:39;5.73;;;2.07;;
8413;SDS011;4244;48.684;9.028;2024-03-23T13:04:05;7.13;;;3.00;;
8413;SDS011;4244;48.684;9.028;2024-03-23T13:06:31;3.73;;;2.00;;
8413;SDS011;4244;48.684;9.028;2024-03-23T13:09:03;4.20;;;2.37;;
8413;SDS011;4244;48.684;9.028;2024-03-23T13:11:29;9.60;;;2.27;;
8413;SDS011;4244;48.684;9.028;2024-03-23T13:13:55;2.30;;;1.20;;
8413;SDS011;4244;48.684;9.028;2024-03-23T13:16:21;2.57;;;0.90;;
8413;SDS011;4244;48.684;9.028;2024-03-23T13:18:47;2.70;;;1.30;;
8413;SDS011;4244;48.684;9.028;2024-03-23T13:21:13;2.53;;;1.33;;
8413;SDS011;4244;48.684;9.028;2024-03-23T13:23:38;1.50;;;0.80;;
8413;SDS011;4244;48.684;9.028;2024-03-23T13:26:07;2.47;;;0.90;;
8413;SDS011;4244;48.684;9.028;2024-03-23T13:28:33;1.43;;;0.77;;
8413;SDS011;4244;48.684;9.028;2024-03-23T13:30:58;2.37;;;0.90;;
8413;SDS011;4244;48.684;9.028;2024-03-23T13:33:28;1.90;;;1.20;;
8413;SDS011;4244;48.684;9.028;2024-03-23T13:35:57;3.47;;;1.43;;
8413;SDS011;4244;48.684;9.028;2024-03-23T13:38:23;3.37;;;2.40;;
8413;SDS011;4244;48.684;9.028;2024-03-23T13:40:52;11.73;;;6.70;;
8413;SDS011;4244;48.684;9.028;2024-03-23T13:43:19;13.33;;;8.63;;
8413;SDS011;4244;48.684;9.028;2024-03-23T13:45:47;8.63;;;5.10;;
8413;SDS011;4244;48.684;9.028;2024-03-23T13:48:15;9.13;;;4.37;;
8413;SDS011;4244;48.684;9.028;2024-03-23T13:50:41;11.93;;;8.30;;
8413;SDS011;4244;48.684;9.028;2024-03-23T13:53:06;8.40;;;5.33;;
8413;SDS011;4244;48.684;9.028;2024-03-23T13:55:33;8.47;;;6.40;;
8413;SDS011;4244;48.684;9.028;2024-03-23T13:57:59;3.83;;;2.80;;
8413;SDS011;4244;48.684;9.028;2024-03-23T14:00:24;2.57;;;1.47;;
8413;SDS011;4244;48.684;9.028;2024-03-23T14:02:50;4.10;;;2.30;;
8413;SDS011;4244;48.684;9.028;2024-03-23T14:05:16;3.60;;;1.67;;
8413;SDS011;4244;48.684;9.028;2024-03-23T14:07:41;3.50;;;1.63;;
8413;SDS011;4244;48.684;9.028;2024-03-23T14:10:08;1.50;;;1.00;;
8413;SDS011;4244;48.684;9.028;2024-03-23T14:12:37;1.53;;;1.00;;
8413;SDS011;4244;48.684;9.028;2024-03-23T14:15:06;1.40;;;0.80;;
8413;SDS011;4244;48.684;9.028;2024-03-23T14:17:32;2.50;;;1.10;;
8413;SDS011;4244;48.684;9.028;2024-03-23T14:19:58;2.90;;;1.00;;
8413;SDS011;4244;48.684;9.028;2024-03-23T14:22:26;6.30;;;1.63;;
8413;SDS011;4244;48.684;9.028;2024-03-23T14:24:53;2.97;;;1.30;;
8413;SDS011;4244;48.684;9.028;2024-03-23T14:27:18;4.60;;;1.50;;
8413;SDS011;4244;48.684;9.028;2024-03-23T14:29:47;4.07;;;1.43;;
8413;SDS011;4244;48.684;9.028;2024-03-23T14:32:13;2.57;;;1.20;;
8413;SDS011;4244;48.684;9.028;2024-03-23T14:34:40;4.13;;;1.40;;
8413;SDS011;4244;48.684;9.028;2024-03-23T14:37:05;3.03;;;1.30;;
8413;SDS011;4244;48.684;9.028;2024-03-23T14:39:31;2.60;;;0.97;;
8413;SDS011;4244;48.684;9.028;2024-03-23T14:41:59;2.10;;;0.87;;
8413;SDS011;4244;48.684;9.028;2024-03-23T14:44:26;2.80;;;1.17;;
8413;SDS011;4244;48.684;9.028;2024-03-23T14:46:53;2.57;;;1.33;;
8413;SDS011;4244;48.684;9.028;2024-03-23T14:49:20;3.43;;;1.10;;
8413;SDS011;4244;48.684;9.028;2024-03-23T14:51:46;3.27;;;1.37;;
8413;SDS011;4244;48.684;9.028;2024-03-23T14:54:11;1.57;;;1.00;;
8413;SDS011;4244;48.684;9.028;2024-03-23T14:56:38;1.90;;;1.03;;
8413;SDS011;4244;48.684;9.028;2024-03-23T14:59:04;2.40;;;1.20;;
8413;SDS011;4244;48.684;9.028;2024-03-23T15:01:31;3.00;;;1.20;;
8413;SDS011;4244;48.684;9.028;2024-03-23T15:03:57;3.77;;;1.40;;
8413;SDS011;4244;48.684;9.028;2024-03-23T15:06:22;2.53;;;1.37;;
8413;SDS011;4244;48.684;9.028;2024-03-23T15:08:48;1.67;;;0.97;;
8413;SDS011;4244;48.684;9.028;2024-03-23T15:11:14;2.60;;;1.00;;
8413;SDS011;4244;48.684;9.028;2024-03-23T15:13:43;2.53;;;0.80;;
8413;SDS011;4244;48.684;9.028;2024-03-23T15:16:08;2.10;;;0.73;;
8413;SDS011;4244;48.684;9.028;2024-03-23T15:18:35;4.40;;;0.80;;
8413;SDS011;4244;48.684;9.028;2024-03-23T15:21:01;1.50;;;0.70;;
8413;SDS011;4244;48.684;9.028;2024-03-23T15:23:31;1.93;;;0.93;;
8413;SDS011;4244;48.684;9.028;2024-03-23T15:25:57;1.20;;;0.70;;
8413;SDS011;4244;48.684;9.028;2024-03-23T15:28:23;2.90;;;0.90;;
8413;SDS011;4244;48.684;9.028;2024-03-23T15:30:52;1.60;;;1.00;;
8413;SDS011;4244;48.684;9.028;2024-03-23T15:33:18;1.30;;;0.60;;
8413;SDS011;4244;48.684;9.028;2024-03-23T15:35:44;1.57;;;1.03;;
8413;SDS011;4244;48.684;9.028;2024-03-23T15:38:09;1.93;;;1.10;;
8413;SDS011;4244;48.684;9.028;2024-03-23T15:40:35;4.40;;;1.30;;
8413;SDS011;4244;48.684;9.028;2024-03-23T15:43:01;2.30;;;1.03;;
8413;SDS011;4244;48.684;9.028;2024-03-23T15:45:27;2.37;;;1.33;;
8413;SDS011;4244;48.684;9.028;2024-03-23T15:47:52;4.63;;;1.77;;
8413;SDS011;4244;48.684;9.028;2024-03-23T15:50:18;1.77;;;1.07;;
8413;SDS011;4244;48.684;9.028;2024-03-23T15:52:44;2.87;;;1.30;;
8413;SDS011;4244;48.684;9.028;2024-03-23T15:55:09;2.90;;;1.20;;
8413;SDS011;4244;48.684;9.028;2024-03-23T15:57:35;1.70;;;0.70;;
8413;SDS011;4244;48.684;9.028;2024-03-23T16:00:02;2.57;;;0.80;;
8413;SDS011;4244;48.684;9.028;2024-03-23T16:02:28;2.00;;;0.70;;
8413;SDS011;4244;48.684;9.028;2024-03-23T16:04:54;2.47;;;1.17;;
8413;SDS011;4244;48.684;9.028;2024-03-23T16:07:20;1.87;;;0.80;;
8413;SDS011;4244;48.684;9.028;2024-03-23T16:09:46;5.63;;;1.10;;
8413;SDS011;4244;48.684;9.028;2024-03-23T16:12:12;4.47;;;0.90;;
8413;SDS011;4244;48.684;9.028;2024-03-23T16:14:37;6.73;;;1.10;;
8413;SDS011;4244;48.684;9.028;2024-03-23T16:17:03;5.03;;;1.30;;
8413;SDS011;4244;48.684;9.028;2024-03-23T16:19:28;2.50;;;0.73;;
8413;SDS011;4244;48.684;9.028;2024-03-23T16:21:54;2.70;;;1.23;;
8413;SDS011;4244;48.684;9.028;2024-03-23T16:24:20;3.53;;;0.80;;